sensor_id;sensor_type;location;lat;lon;timestamp;P1;durP1;ratioP1;P2;durP2;ratioP2
70547;SDS011;58099;43.406;3.698;2022-08-25T00:00:31;6.85;;;3.60;;
70547;SDS011;58099;43.406;3.698;2022-08-25T00:02:58;5.28;;;2.70;;
70547;SDS011;58099;43.406;3.698;2022-08-25T00:05:25;5.53;;;3.15;;
70547;SDS011;58099;43.406;3.698;2022-08-25T00:07:51;6.07;;;3.33;;
70547;SDS011;58099;43.406;3.698;2022-08-25T00:10:18;6.20;;;3.00;;
70547;SDS011;58099;43.406;3.698;2022-08-25T00:12:44;7.15;;;3.00;;
70547;SDS011;58099;43.406;3.698;2022-08-25T00:15:10;6.30;;;2.88;;
70547;SDS011;58099;43.406;3.698;2022-08-25T00:17:36;9.15;;;5.97;;
70547;SDS011;58099;43.406;3.698;2022-08-25T00:20:03;9.50;;;5.50;;
70547;SDS011;58099;43.406;3.698;2022-08-25T00:22:30;10.75;;;4.25;;
70547;SDS011;58099;43.406;3.698;2022-08-25T00:24:56;6.35;;;3.58;;
70547;SDS011;58099;43.406;3.698;2022-08-25T00:27:22;13.35;;;4.10;;
70547;SDS011;58099;43.406;3.698;2022-08-25T00:29:48;6.28;;;2.83;;
70547;SDS011;58099;43.406;3.698;2022-08-25T00:32:14;6.10;;;3.20;;
70547;SDS011;58099;43.406;3.698;2022-08-25T00:34:42;5.20;;;2.60;;
70547;SDS011;58099;43.406;3.698;2022-08-25T00:37:08;6.20;;;3.00;;
70547;SDS011;58099;43.406;3.698;2022-08-25T00:39:35;5.13;;;3.13;;
70547;SDS011;58099;43.406;3.698;2022-08-25T00:42:01;5.60;;;2.97;;
70547;SDS011;58099;43.406;3.698;2022-08-25T00:44:30;6.10;;;2.80;;
70547;SDS011;58099;43.406;3.698;2022-08-25T00:46:58;5.57;;;2.90;;
70547;SDS011;58099;43.406;3.698;2022-08-25T00:52:49;7.07;;;3.35;;
70547;SDS011;58099;43.406;3.698;2022-08-25T00:55:25;11.30;;;4.15;;
70547;SDS011;58099;43.406;3.698;2022-08-25T00:57:55;10.37;;;3.60;;
70547;SDS011;58099;43.406;3.698;2022-08-25T01:00:30;5.95;;;2.70;;
70547;SDS011;58099;43.406;3.698;2022-08-25T01:02:56;9.45;;;3.00;;
70547;SDS011;58099;43.406;3.698;2022-08-25T01:05:23;5.10;;;2.45;;
70547;SDS011;58099;43.406;3.698;2022-08-25T01:07:49;14.75;;;4.03;;
70547;SDS011;58099;43.406;3.698;2022-08-25T01:10:16;7.17;;;2.97;;
70547;SDS011;58099;43.406;3.698;2022-08-25T01:12:43;5.68;;;2.63;;
70547;SDS011;58099;43.406;3.698;2022-08-25T01:15:10;5.72;;;2.80;;
70547;SDS011;58099;43.406;3.698;2022-08-25T01:17:44;5.78;;;2.60;;
70547;SDS011;58099;43.406;3.698;2022-08-25T01:20:10;6.90;;;3.00;;
70547;SDS011;58099;43.406;3.698;2022-08-25T01:22:37;4.70;;;2.50;;
70547;SDS011;58099;43.406;3.698;2022-08-25T01:25:06;9.35;;;2.90;;
70547;SDS011;58099;43.406;3.698;2022-08-25T01:27:38;5.63;;;2.88;;
70547;SDS011;58099;43.406;3.698;2022-08-25T01:30:04;9.35;;;3.10;;
70547;SDS011;58099;43.406;3.698;2022-08-25T01:32:32;8.43;;;2.80;;
70547;SDS011;58099;43.406;3.698;2022-08-25T01:34:58;5.53;;;2.70;;
70547;SDS011;58099;43.406;3.698;2022-08-25T01:37:24;8.60;;;2.63;;
70547;SDS011;58099;43.406;3.698;2022-08-25T01:39:50;7.03;;;2.80;;
70547;SDS011;58099;43.406;3.698;2022-08-25T01:42:17;9.82;;;3.33;;
70547;SDS011;58099;43.406;3.698;2022-08-25T01:44:44;7.20;;;2.90;;
70547;SDS011;58099;43.406;3.698;2022-08-25T01:47:11;6.10;;;2.93;;
70547;SDS011;58099;43.406;3.698;2022-08-25T01:49:38;6.65;;;3.47;;
70547;SDS011;58099;43.406;3.698;2022-08-25T01:54:30;5.35;;;3.03;;
70547;SDS011;58099;43.406;3.698;2022-08-25T01:56:57;8.50;;;3.78;;
70547;SDS011;58099;43.406;3.698;2022-08-25T01:59:23;9.30;;;3.50;;
70547;SDS011;58099;43.406;3.698;2022-08-25T02:01:50;7.22;;;3.47;;
70547;SDS011;58099;43.406;3.698;2022-08-25T02:04:16;7.82;;;3.33;;
70547;SDS011;58099;43.406;3.698;2022-08-25T02:06:43;5.45;;;3.22;;
70547;SDS011;58099;43.406;3.698;2022-08-25T02:09:10;7.07;;;3.88;;
70547;SDS011;58099;43.406;3.698;2022-08-25T02:11:38;7.73;;;3.17;;
70547;SDS011;58099;43.406;3.698;2022-08-25T02:14:04;6.95;;;3.75;;
70547;SDS011;58099;43.406;3.698;2022-08-25T02:16:32;5.65;;;3.80;;
70547;SDS011;58099;43.406;3.698;2022-08-25T02:18:59;7.28;;;3.50;;
70547;SDS011;58099;43.406;3.698;2022-08-25T02:21:25;5.88;;;3.75;;
70547;SDS011;58099;43.406;3.698;2022-08-25T02:23:52;6.63;;;4.00;;
70547;SDS011;58099;43.406;3.698;2022-08-25T02:26:19;7.22;;;3.78;;
70547;SDS011;58099;43.406;3.698;2022-08-25T02:28:46;6.53;;;3.70;;
70547;SDS011;58099;43.406;3.698;2022-08-25T02:31:12;9.57;;;4.15;;
70547;SDS011;58099;43.406;3.698;2022-08-25T02:33:38;9.73;;;3.78;;
70547;SDS011;58099;43.406;3.698;2022-08-25T02:36:04;12.33;;;4.73;;
70547;SDS011;58099;43.406;3.698;2022-08-25T02:38:31;10.57;;;4.20;;
70547;SDS011;58099;43.406;3.698;2022-08-25T02:40:58;9.27;;;4.35;;
70547;SDS011;58099;43.406;3.698;2022-08-25T02:43:25;6.53;;;3.20;;
70547;SDS011;58099;43.406;3.698;2022-08-25T02:45:51;10.00;;;4.35;;
70547;SDS011;58099;43.406;3.698;2022-08-25T02:48:17;7.80;;;3.90;;
70547;SDS011;58099;43.406;3.698;2022-08-25T02:50:47;9.82;;;4.00;;
70547;SDS011;58099;43.406;3.698;2022-08-25T02:53:15;6.72;;;4.30;;
70547;SDS011;58099;43.406;3.698;2022-08-25T02:55:42;7.32;;;4.10;;
70547;SDS011;58099;43.406;3.698;2022-08-25T02:58:08;7.43;;;4.60;;
70547;SDS011;58099;43.406;3.698;2022-08-25T03:00:34;9.33;;;4.30;;
70547;SDS011;58099;43.406;3.698;2022-08-25T03:03:01;7.32;;;3.90;;
70547;SDS011;58099;43.406;3.698;2022-08-25T03:05:27;9.98;;;5.03;;
70547;SDS011;58099;43.406;3.698;2022-08-25T03:07:53;12.18;;;5.03;;
70547;SDS011;58099;43.406;3.698;2022-08-25T03:10:19;7.38;;;4.70;;
70547;SDS011;58099;43.406;3.698;2022-08-25T03:12:45;10.23;;;4.97;;
70547;SDS011;58099;43.406;3.698;2022-08-25T03:15:13;8.02;;;5.13;;
70547;SDS011;58099;43.406;3.698;2022-08-25T03:17:41;9.45;;;4.40;;
70547;SDS011;58099;43.406;3.698;2022-08-25T03:20:07;9.05;;;5.20;;
70547;SDS011;58099;43.406;3.698;2022-08-25T03:22:33;8.43;;;5.00;;
70547;SDS011;58099;43.406;3.698;2022-08-25T03:25:00;9.37;;;4.40;;
70547;SDS011;58099;43.406;3.698;2022-08-25T03:27:45;6.93;;;3.85;;
70547;SDS011;58099;43.406;3.698;2022-08-25T03:30:13;8.80;;;5.13;;
70547;SDS011;58099;43.406;3.698;2022-08-25T03:32:40;7.57;;;4.97;;
70547;SDS011;58099;43.406;3.698;2022-08-25T03:35:06;10.70;;;5.57;;
70547;SDS011;58099;43.406;3.698;2022-08-25T03:37:33;8.47;;;5.00;;
70547;SDS011;58099;43.406;3.698;2022-08-25T03:40:00;7.97;;;4.97;;
70547;SDS011;58099;43.406;3.698;2022-08-25T03:42:26;18.02;;;5.80;;
70547;SDS011;58099;43.406;3.698;2022-08-25T03:44:52;8.77;;;5.32;;
70547;SDS011;58099;43.406;3.698;2022-08-25T03:47:18;8.45;;;5.65;;
70547;SDS011;58099;43.406;3.698;2022-08-25T03:49:44;10.67;;;5.57;;
70547;SDS011;58099;43.406;3.698;2022-08-25T03:52:10;10.25;;;5.07;;
70547;SDS011;58099;43.406;3.698;2022-08-25T03:54:36;11.20;;;6.15;;
70547;SDS011;58099;43.406;3.698;2022-08-25T03:57:03;9.93;;;5.70;;
70547;SDS011;58099;43.406;3.698;2022-08-25T03:59:30;8.82;;;4.45;;
70547;SDS011;58099;43.406;3.698;2022-08-25T04:01:56;13.53;;;7.67;;
70547;SDS011;58099;43.406;3.698;2022-08-25T04:04:22;12.70;;;6.90;;
70547;SDS011;58099;43.406;3.698;2022-08-25T04:06:48;10.65;;;6.00;;
70547;SDS011;58099;43.406;3.698;2022-08-25T04:09:17;12.13;;;7.03;;
70547;SDS011;58099;43.406;3.698;2022-08-25T04:11:43;11.13;;;6.68;;
70547;SDS011;58099;43.406;3.698;2022-08-25T04:14:10;14.13;;;5.80;;
70547;SDS011;58099;43.406;3.698;2022-08-25T04:16:37;9.60;;;6.38;;
70547;SDS011;58099;43.406;3.698;2022-08-25T04:19:04;8.77;;;5.28;;
70547;SDS011;58099;43.406;3.698;2022-08-25T04:21:31;10.30;;;6.95;;
70547;SDS011;58099;43.406;3.698;2022-08-25T04:23:57;11.30;;;6.40;;
70547;SDS011;58099;43.406;3.698;2022-08-25T04:26:24;11.67;;;5.87;;
70547;SDS011;58099;43.406;3.698;2022-08-25T04:28:51;12.55;;;6.10;;
70547;SDS011;58099;43.406;3.698;2022-08-25T04:31:17;10.60;;;6.00;;
70547;SDS011;58099;43.406;3.698;2022-08-25T04:33:44;12.68;;;5.13;;
70547;SDS011;58099;43.406;3.698;2022-08-25T04:36:14;8.70;;;5.25;;
70547;SDS011;58099;43.406;3.698;2022-08-25T04:38:41;7.77;;;4.93;;
70547;SDS011;58099;43.406;3.698;2022-08-25T04:41:07;8.50;;;4.90;;
70547;SDS011;58099;43.406;3.698;2022-08-25T04:43:34;9.80;;;5.28;;
70547;SDS011;58099;43.406;3.698;2022-08-25T04:46:04;8.90;;;4.75;;
70547;SDS011;58099;43.406;3.698;2022-08-25T04:48:31;11.10;;;5.53;;
70547;SDS011;58099;43.406;3.698;2022-08-25T04:50:57;8.20;;;4.63;;
70547;SDS011;58099;43.406;3.698;2022-08-25T04:53:23;11.82;;;4.95;;
70547;SDS011;58099;43.406;3.698;2022-08-25T04:55:49;11.90;;;6.00;;
70547;SDS011;58099;43.406;3.698;2022-08-25T04:58:18;8.70;;;4.50;;
70547;SDS011;58099;43.406;3.698;2022-08-25T05:00:44;7.97;;;4.60;;
70547;SDS011;58099;43.406;3.698;2022-08-25T05:03:10;8.50;;;5.43;;
70547;SDS011;58099;43.406;3.698;2022-08-25T05:05:37;8.13;;;5.00;;
70547;SDS011;58099;43.406;3.698;2022-08-25T05:08:04;9.40;;;5.40;;
70547;SDS011;58099;43.406;3.698;2022-08-25T05:10:30;12.00;;;5.70;;
70547;SDS011;58099;43.406;3.698;2022-08-25T05:12:57;9.02;;;5.30;;
70547;SDS011;58099;43.406;3.698;2022-08-25T05:15:24;9.40;;;5.30;;
70547;SDS011;58099;43.406;3.698;2022-08-25T05:18:09;8.90;;;5.07;;
70547;SDS011;58099;43.406;3.698;2022-08-25T05:20:36;7.18;;;4.50;;
70547;SDS011;58099;43.406;3.698;2022-08-25T05:23:03;8.07;;;4.40;;
70547;SDS011;58099;43.406;3.698;2022-08-25T05:25:29;10.27;;;6.15;;
70547;SDS011;58099;43.406;3.698;2022-08-25T05:27:55;10.13;;;6.10;;
70547;SDS011;58099;43.406;3.698;2022-08-25T05:30:21;9.93;;;5.88;;
70547;SDS011;58099;43.406;3.698;2022-08-25T05:32:47;9.43;;;5.28;;
70547;SDS011;58099;43.406;3.698;2022-08-25T05:35:13;9.45;;;4.38;;
70547;SDS011;58099;43.406;3.698;2022-08-25T05:37:40;8.05;;;5.00;;
70547;SDS011;58099;43.406;3.698;2022-08-25T05:40:06;7.83;;;4.33;;
70547;SDS011;58099;43.406;3.698;2022-08-25T05:42:33;6.55;;;4.28;;
70547;SDS011;58099;43.406;3.698;2022-08-25T05:44:59;9.02;;;4.85;;
70547;SDS011;58099;43.406;3.698;2022-08-25T05:47:25;9.55;;;5.07;;
70547;SDS011;58099;43.406;3.698;2022-08-25T05:49:51;7.38;;;4.85;;
70547;SDS011;58099;43.406;3.698;2022-08-25T05:52:17;10.40;;;5.07;;
70547;SDS011;58099;43.406;3.698;2022-08-25T05:54:44;6.50;;;4.72;;
70547;SDS011;58099;43.406;3.698;2022-08-25T05:57:10;8.48;;;4.95;;
70547;SDS011;58099;43.406;3.698;2022-08-25T05:59:38;7.30;;;4.00;;
70547;SDS011;58099;43.406;3.698;2022-08-25T06:02:04;8.60;;;4.80;;
70547;SDS011;58099;43.406;3.698;2022-08-25T06:04:48;8.63;;;4.73;;
70547;SDS011;58099;43.406;3.698;2022-08-25T06:07:14;8.95;;;4.65;;
70547;SDS011;58099;43.406;3.698;2022-08-25T06:09:40;7.15;;;4.28;;
70547;SDS011;58099;43.406;3.698;2022-08-25T06:12:10;8.40;;;4.55;;
70547;SDS011;58099;43.406;3.698;2022-08-25T06:14:36;6.78;;;4.25;;
70547;SDS011;58099;43.406;3.698;2022-08-25T06:17:02;7.50;;;4.13;;
70547;SDS011;58099;43.406;3.698;2022-08-25T06:19:28;5.70;;;3.67;;
70547;SDS011;58099;43.406;3.698;2022-08-25T06:21:55;7.85;;;3.95;;
70547;SDS011;58099;43.406;3.698;2022-08-25T06:24:22;6.97;;;4.20;;
70547;SDS011;58099;43.406;3.698;2022-08-25T06:26:48;5.82;;;3.97;;
70547;SDS011;58099;43.406;3.698;2022-08-25T06:29:14;7.20;;;3.90;;
70547;SDS011;58099;43.406;3.698;2022-08-25T06:31:40;7.28;;;4.47;;
70547;SDS011;58099;43.406;3.698;2022-08-25T06:34:07;7.20;;;4.07;;
70547;SDS011;58099;43.406;3.698;2022-08-25T06:36:33;8.18;;;4.35;;
70547;SDS011;58099;43.406;3.698;2022-08-25T06:38:59;7.65;;;4.20;;
70547;SDS011;58099;43.406;3.698;2022-08-25T06:41:25;8.70;;;3.90;;
70547;SDS011;58099;43.406;3.698;2022-08-25T06:43:51;9.55;;;3.78;;
70547;SDS011;58099;43.406;3.698;2022-08-25T06:46:19;7.35;;;4.10;;
70547;SDS011;58099;43.406;3.698;2022-08-25T06:48:45;7.78;;;3.35;;
70547;SDS011;58099;43.406;3.698;2022-08-25T06:51:13;7.32;;;3.75;;
70547;SDS011;58099;43.406;3.698;2022-08-25T06:53:43;6.00;;;3.23;;
70547;SDS011;58099;43.406;3.698;2022-08-25T06:56:10;7.63;;;3.42;;
70547;SDS011;58099;43.406;3.698;2022-08-25T06:58:37;8.27;;;3.55;;
70547;SDS011;58099;43.406;3.698;2022-08-25T07:01:22;8.45;;;3.35;;
70547;SDS011;58099;43.406;3.698;2022-08-25T07:03:50;7.35;;;3.38;;
70547;SDS011;58099;43.406;3.698;2022-08-25T07:06:17;7.37;;;3.27;;
70547;SDS011;58099;43.406;3.698;2022-08-25T07:08:43;9.00;;;3.47;;
70547;SDS011;58099;43.406;3.698;2022-08-25T07:11:10;5.45;;;3.30;;
70547;SDS011;58099;43.406;3.698;2022-08-25T07:13:38;5.40;;;3.00;;
70547;SDS011;58099;43.406;3.698;2022-08-25T07:16:05;7.00;;;3.60;;
70547;SDS011;58099;43.406;3.698;2022-08-25T07:18:31;6.10;;;2.97;;
70547;SDS011;58099;43.406;3.698;2022-08-25T07:20:57;4.90;;;2.67;;
70547;SDS011;58099;43.406;3.698;2022-08-25T07:23:24;5.20;;;3.50;;
70547;SDS011;58099;43.406;3.698;2022-08-25T07:25:50;5.38;;;3.00;;
70547;SDS011;58099;43.406;3.698;2022-08-25T07:28:17;8.02;;;3.67;;
70547;SDS011;58099;43.406;3.698;2022-08-25T07:30:43;6.93;;;3.00;;
70547;SDS011;58099;43.406;3.698;2022-08-25T07:33:10;4.95;;;2.50;;
70547;SDS011;58099;43.406;3.698;2022-08-25T07:35:36;5.28;;;2.58;;
70547;SDS011;58099;43.406;3.698;2022-08-25T07:38:03;5.43;;;2.60;;
70547;SDS011;58099;43.406;3.698;2022-08-25T07:40:32;6.82;;;3.20;;
70547;SDS011;58099;43.406;3.698;2022-08-25T07:42:59;4.60;;;2.50;;
70547;SDS011;58099;43.406;3.698;2022-08-25T07:45:28;7.15;;;2.63;;
70547;SDS011;58099;43.406;3.698;2022-08-25T07:48:02;6.10;;;2.88;;
70547;SDS011;58099;43.406;3.698;2022-08-25T07:50:29;5.90;;;2.60;;
70547;SDS011;58099;43.406;3.698;2022-08-25T07:52:56;5.57;;;2.35;;
70547;SDS011;58099;43.406;3.698;2022-08-25T07:55:23;4.87;;;2.47;;
70547;SDS011;58099;43.406;3.698;2022-08-25T07:57:49;5.43;;;2.10;;
70547;SDS011;58099;43.406;3.698;2022-08-25T08:00:16;4.50;;;2.53;;
70547;SDS011;58099;43.406;3.698;2022-08-25T08:02:42;7.22;;;2.20;;
70547;SDS011;58099;43.406;3.698;2022-08-25T08:05:09;5.57;;;2.30;;
70547;SDS011;58099;43.406;3.698;2022-08-25T08:07:35;4.37;;;2.40;;
70547;SDS011;58099;43.406;3.698;2022-08-25T08:10:02;4.68;;;2.47;;
70547;SDS011;58099;43.406;3.698;2022-08-25T08:12:28;6.35;;;2.80;;
70547;SDS011;58099;43.406;3.698;2022-08-25T08:14:55;5.57;;;2.50;;
70547;SDS011;58099;43.406;3.698;2022-08-25T08:17:21;7.32;;;2.95;;
70547;SDS011;58099;43.406;3.698;2022-08-25T08:19:47;5.73;;;2.37;;
70547;SDS011;58099;43.406;3.698;2022-08-25T08:22:13;6.20;;;2.67;;
70547;SDS011;58099;43.406;3.698;2022-08-25T08:24:40;5.45;;;2.33;;
70547;SDS011;58099;43.406;3.698;2022-08-25T08:27:08;5.65;;;2.55;;
70547;SDS011;58099;43.406;3.698;2022-08-25T08:29:35;6.30;;;2.70;;
70547;SDS011;58099;43.406;3.698;2022-08-25T08:32:02;8.23;;;2.83;;
70547;SDS011;58099;43.406;3.698;2022-08-25T08:34:29;5.60;;;2.55;;
70547;SDS011;58099;43.406;3.698;2022-08-25T08:36:55;5.32;;;2.30;;
70547;SDS011;58099;43.406;3.698;2022-08-25T08:39:22;4.72;;;1.75;;
70547;SDS011;58099;43.406;3.698;2022-08-25T08:41:54;4.30;;;2.00;;
70547;SDS011;58099;43.406;3.698;2022-08-25T08:44:41;4.20;;;2.17;;
70547;SDS011;58099;43.406;3.698;2022-08-25T08:57:51;5.60;;;2.47;;
70547;SDS011;58099;43.406;3.698;2022-08-25T09:00:19;5.95;;;3.30;;
70547;SDS011;58099;43.406;3.698;2022-08-25T09:05:19;6.50;;;3.22;;
70547;SDS011;58099;43.406;3.698;2022-08-25T09:07:49;4.70;;;2.60;;
70547;SDS011;58099;43.406;3.698;2022-08-25T09:10:16;5.37;;;2.50;;
70547;SDS011;58099;43.406;3.698;2022-08-25T09:13:04;5.05;;;2.85;;
70547;SDS011;58099;43.406;3.698;2022-08-25T09:28:29;4.97;;;2.88;;
70547;SDS011;58099;43.406;3.698;2022-08-25T09:31:00;5.05;;;2.60;;
70547;SDS011;58099;43.406;3.698;2022-08-25T09:33:26;5.97;;;2.85;;
70547;SDS011;58099;43.406;3.698;2022-08-25T09:35:53;4.23;;;2.53;;
70547;SDS011;58099;43.406;3.698;2022-08-25T09:38:20;5.65;;;3.22;;
70547;SDS011;58099;43.406;3.698;2022-08-25T09:40:49;5.00;;;3.30;;
70547;SDS011;58099;43.406;3.698;2022-08-25T09:46:15;5.55;;;2.90;;
70547;SDS011;58099;43.406;3.698;2022-08-25T09:53:42;6.50;;;3.10;;
70547;SDS011;58099;43.406;3.698;2022-08-25T09:56:09;5.80;;;2.67;;
70547;SDS011;58099;43.406;3.698;2022-08-25T09:58:36;6.88;;;2.67;;
70547;SDS011;58099;43.406;3.698;2022-08-25T10:06:18;5.47;;;3.30;;
70547;SDS011;58099;43.406;3.698;2022-08-25T10:11:13;6.60;;;2.97;;
70547;SDS011;58099;43.406;3.698;2022-08-25T10:16:20;7.22;;;4.07;;
70547;SDS011;58099;43.406;3.698;2022-08-25T10:19:32;7.35;;;3.92;;
70547;SDS011;58099;43.406;3.698;2022-08-25T10:21:34;8.18;;;4.05;;
70547;SDS011;58099;43.406;3.698;2022-08-25T10:24:01;8.73;;;4.57;;
70547;SDS011;58099;43.406;3.698;2022-08-25T10:26:35;8.17;;;4.90;;
70547;SDS011;58099;43.406;3.698;2022-08-25T10:31:39;7.80;;;4.72;;
70547;SDS011;58099;43.406;3.698;2022-08-25T10:39:05;6.97;;;4.20;;
70547;SDS011;58099;43.406;3.698;2022-08-25T10:49:39;7.13;;;3.70;;
70547;SDS011;58099;43.406;3.698;2022-08-25T10:52:11;7.13;;;4.37;;
70547;SDS011;58099;43.406;3.698;2022-08-25T11:09:39;8.63;;;4.25;;
70547;SDS011;58099;43.406;3.698;2022-08-25T11:12:17;7.82;;;3.92;;
70547;SDS011;58099;43.406;3.698;2022-08-25T11:14:46;6.97;;;3.53;;
70547;SDS011;58099;43.406;3.698;2022-08-25T11:17:57;9.87;;;4.00;;
70547;SDS011;58099;43.406;3.698;2022-08-25T11:20:04;6.78;;;3.97;;
70547;SDS011;58099;43.406;3.698;2022-08-25T11:22:34;6.93;;;3.97;;
70547;SDS011;58099;43.406;3.698;2022-08-25T11:27:35;6.53;;;3.40;;
70547;SDS011;58099;43.406;3.698;2022-08-25T11:30:06;6.80;;;3.80;;
70547;SDS011;58099;43.406;3.698;2022-08-25T11:32:33;7.72;;;3.35;;
70547;SDS011;58099;43.406;3.698;2022-08-25T11:35:01;7.45;;;4.07;;
70547;SDS011;58099;43.406;3.698;2022-08-25T11:37:28;7.28;;;3.67;;
70547;SDS011;58099;43.406;3.698;2022-08-25T11:47:58;6.38;;;3.58;;
70547;SDS011;58099;43.406;3.698;2022-08-25T11:50:53;8.13;;;3.63;;
70547;SDS011;58099;43.406;3.698;2022-08-25T11:55:52;7.17;;;4.10;;
70547;SDS011;58099;43.406;3.698;2022-08-25T12:00:56;7.70;;;4.00;;
70547;SDS011;58099;43.406;3.698;2022-08-25T12:06:15;7.07;;;3.75;;
70547;SDS011;58099;43.406;3.698;2022-08-25T12:20:19;7.40;;;3.90;;
70547;SDS011;58099;43.406;3.698;2022-08-25T12:29:39;7.70;;;3.97;;
70547;SDS011;58099;43.406;3.698;2022-08-25T12:37:14;7.40;;;4.25;;
70547;SDS011;58099;43.406;3.698;2022-08-25T12:39:42;10.25;;;4.30;;
70547;SDS011;58099;43.406;3.698;2022-08-25T12:42:20;6.60;;;3.70;;
70547;SDS011;58099;43.406;3.698;2022-08-25T12:44:47;7.57;;;3.78;;
70547;SDS011;58099;43.406;3.698;2022-08-25T12:47:32;6.30;;;3.43;;
70547;SDS011;58099;43.406;3.698;2022-08-25T12:52:43;6.60;;;4.15;;
70547;SDS011;58099;43.406;3.698;2022-08-25T12:55:10;7.20;;;4.00;;
70547;SDS011;58099;43.406;3.698;2022-08-25T13:10:55;5.45;;;3.53;;
70547;SDS011;58099;43.406;3.698;2022-08-25T13:15:59;7.88;;;3.72;;
70547;SDS011;58099;43.406;3.698;2022-08-25T13:18:27;7.00;;;4.03;;
70547;SDS011;58099;43.406;3.698;2022-08-25T13:23:40;6.18;;;3.33;;
70547;SDS011;58099;43.406;3.698;2022-08-25T13:26:06;5.93;;;2.77;;
70547;SDS011;58099;43.406;3.698;2022-08-25T13:28:33;6.80;;;2.97;;
70547;SDS011;58099;43.406;3.698;2022-08-25T13:31:14;6.65;;;3.50;;
70547;SDS011;58099;43.406;3.698;2022-08-25T13:33:48;6.53;;;3.35;;
70547;SDS011;58099;43.406;3.698;2022-08-25T13:36:15;7.32;;;3.20;;
70547;SDS011;58099;43.406;3.698;2022-08-25T13:39:09;5.93;;;3.20;;
70547;SDS011;58099;43.406;3.698;2022-08-25T13:41:35;6.00;;;3.60;;
70547;SDS011;58099;43.406;3.698;2022-08-25T13:44:01;6.00;;;3.40;;
70547;SDS011;58099;43.406;3.698;2022-08-25T13:46:28;7.55;;;4.00;;
70547;SDS011;58099;43.406;3.698;2022-08-25T13:49:02;6.30;;;3.97;;
70547;SDS011;58099;43.406;3.698;2022-08-25T13:51:29;7.67;;;3.63;;
70547;SDS011;58099;43.406;3.698;2022-08-25T13:53:59;6.82;;;3.78;;
70547;SDS011;58099;43.406;3.698;2022-08-25T13:56:29;6.63;;;4.00;;
70547;SDS011;58099;43.406;3.698;2022-08-25T13:58:55;8.70;;;4.13;;
70547;SDS011;58099;43.406;3.698;2022-08-25T14:01:24;6.60;;;3.65;;
70547;SDS011;58099;43.406;3.698;2022-08-25T14:03:51;5.20;;;3.20;;
70547;SDS011;58099;43.406;3.698;2022-08-25T14:06:20;7.00;;;3.22;;
70547;SDS011;58099;43.406;3.698;2022-08-25T14:08:47;6.57;;;3.47;;
70547;SDS011;58099;43.406;3.698;2022-08-25T14:11:25;5.90;;;3.13;;
70547;SDS011;58099;43.406;3.698;2022-08-25T14:13:59;6.07;;;3.30;;
70547;SDS011;58099;43.406;3.698;2022-08-25T14:16:25;5.90;;;3.40;;
70547;SDS011;58099;43.406;3.698;2022-08-25T14:18:54;7.43;;;3.75;;
70547;SDS011;58099;43.406;3.698;2022-08-25T14:21:25;6.00;;;4.00;;
70547;SDS011;58099;43.406;3.698;2022-08-25T14:23:51;7.38;;;3.72;;
70547;SDS011;58099;43.406;3.698;2022-08-25T14:26:18;7.03;;;3.53;;
70547;SDS011;58099;43.406;3.698;2022-08-25T14:28:44;10.13;;;3.33;;
70547;SDS011;58099;43.406;3.698;2022-08-25T14:31:14;6.00;;;2.70;;
70547;SDS011;58099;43.406;3.698;2022-08-25T14:33:44;7.57;;;3.58;;
70547;SDS011;58099;43.406;3.698;2022-08-25T14:36:11;5.72;;;3.33;;
70547;SDS011;58099;43.406;3.698;2022-08-25T14:38:38;6.85;;;3.42;;
70547;SDS011;58099;43.406;3.698;2022-08-25T14:41:04;7.37;;;2.63;;
70547;SDS011;58099;43.406;3.698;2022-08-25T14:43:31;7.35;;;3.53;;
70547;SDS011;58099;43.406;3.698;2022-08-25T14:45:57;5.30;;;3.20;;
70547;SDS011;58099;43.406;3.698;2022-08-25T14:48:28;7.00;;;3.03;;
70547;SDS011;58099;43.406;3.698;2022-08-25T14:50:56;5.03;;;3.05;;
70547;SDS011;58099;43.406;3.698;2022-08-25T14:53:23;7.03;;;3.30;;
70547;SDS011;58099;43.406;3.698;2022-08-25T14:55:49;6.15;;;3.55;;
70547;SDS011;58099;43.406;3.698;2022-08-25T14:58:19;6.63;;;3.45;;
70547;SDS011;58099;43.406;3.698;2022-08-25T15:00:45;6.32;;;3.60;;
70547;SDS011;58099;43.406;3.698;2022-08-25T15:03:12;6.35;;;3.78;;
70547;SDS011;58099;43.406;3.698;2022-08-25T15:05:40;8.03;;;3.60;;
70547;SDS011;58099;43.406;3.698;2022-08-25T15:08:08;5.95;;;3.13;;
70547;SDS011;58099;43.406;3.698;2022-08-25T15:10:53;6.90;;;3.35;;
70547;SDS011;58099;43.406;3.698;2022-08-25T15:13:19;7.38;;;3.53;;
70547;SDS011;58099;43.406;3.698;2022-08-25T15:15:45;7.75;;;3.50;;
70547;SDS011;58099;43.406;3.698;2022-08-25T15:18:12;6.27;;;2.93;;
70547;SDS011;58099;43.406;3.698;2022-08-25T15:20:39;5.40;;;3.17;;
70547;SDS011;58099;43.406;3.698;2022-08-25T15:23:05;7.28;;;3.72;;
70547;SDS011;58099;43.406;3.698;2022-08-25T15:25:32;6.13;;;3.38;;
70547;SDS011;58099;43.406;3.698;2022-08-25T15:28:02;8.82;;;3.05;;
70547;SDS011;58099;43.406;3.698;2022-08-25T15:30:28;5.73;;;3.23;;
70547;SDS011;58099;43.406;3.698;2022-08-25T15:32:54;6.30;;;3.45;;
70547;SDS011;58099;43.406;3.698;2022-08-25T15:35:20;6.45;;;3.85;;
70547;SDS011;58099;43.406;3.698;2022-08-25T15:37:46;6.82;;;3.50;;
70547;SDS011;58099;43.406;3.698;2022-08-25T15:40:13;7.90;;;4.43;;
70547;SDS011;58099;43.406;3.698;2022-08-25T15:42:39;5.77;;;4.10;;
70547;SDS011;58099;43.406;3.698;2022-08-25T15:45:05;8.43;;;4.13;;
70547;SDS011;58099;43.406;3.698;2022-08-25T15:47:32;9.80;;;4.50;;
70547;SDS011;58099;43.406;3.698;2022-08-25T15:50:06;7.53;;;4.55;;
70547;SDS011;58099;43.406;3.698;2022-08-25T15:52:32;6.95;;;4.00;;
70547;SDS011;58099;43.406;3.698;2022-08-25T15:54:59;6.10;;;3.37;;
70547;SDS011;58099;43.406;3.698;2022-08-25T15:57:25;8.02;;;3.90;;
70547;SDS011;58099;43.406;3.698;2022-08-25T15:59:52;7.63;;;4.78;;
70547;SDS011;58099;43.406;3.698;2022-08-25T16:02:18;9.13;;;3.70;;
70547;SDS011;58099;43.406;3.698;2022-08-25T16:04:44;7.07;;;3.80;;
70547;SDS011;58099;43.406;3.698;2022-08-25T16:07:10;7.20;;;4.00;;
70547;SDS011;58099;43.406;3.698;2022-08-25T16:09:36;8.23;;;3.65;;
70547;SDS011;58099;43.406;3.698;2022-08-25T16:12:03;7.82;;;4.60;;
70547;SDS011;58099;43.406;3.698;2022-08-25T16:14:29;7.93;;;4.47;;
70547;SDS011;58099;43.406;3.698;2022-08-25T16:16:55;7.90;;;4.53;;
70547;SDS011;58099;43.406;3.698;2022-08-25T16:19:21;8.03;;;5.10;;
70547;SDS011;58099;43.406;3.698;2022-08-25T16:21:47;7.57;;;4.15;;
70547;SDS011;58099;43.406;3.698;2022-08-25T16:24:13;6.85;;;4.43;;
70547;SDS011;58099;43.406;3.698;2022-08-25T16:26:39;6.15;;;3.78;;
70547;SDS011;58099;43.406;3.698;2022-08-25T16:29:08;5.82;;;3.28;;
70547;SDS011;58099;43.406;3.698;2022-08-25T16:31:36;5.73;;;3.00;;
70547;SDS011;58099;43.406;3.698;2022-08-25T16:34:02;6.80;;;3.05;;
70547;SDS011;58099;43.406;3.698;2022-08-25T16:36:29;5.70;;;2.90;;
70547;SDS011;58099;43.406;3.698;2022-08-25T16:38:55;6.63;;;2.90;;
70547;SDS011;58099;43.406;3.698;2022-08-25T16:41:23;7.60;;;3.38;;
70547;SDS011;58099;43.406;3.698;2022-08-25T16:43:49;5.47;;;3.37;;
70547;SDS011;58099;43.406;3.698;2022-08-25T16:46:17;5.97;;;3.45;;
70547;SDS011;58099;43.406;3.698;2022-08-25T16:48:43;6.63;;;3.10;;
70547;SDS011;58099;43.406;3.698;2022-08-25T16:51:11;6.07;;;3.20;;
70547;SDS011;58099;43.406;3.698;2022-08-25T16:53:37;7.63;;;4.20;;
70547;SDS011;58099;43.406;3.698;2022-08-25T16:56:23;6.60;;;3.73;;
70547;SDS011;58099;43.406;3.698;2022-08-25T16:58:52;6.28;;;3.38;;
70547;SDS011;58099;43.406;3.698;2022-08-25T17:01:20;6.65;;;3.88;;
70547;SDS011;58099;43.406;3.698;2022-08-25T17:03:46;6.35;;;3.50;;
70547;SDS011;58099;43.406;3.698;2022-08-25T17:06:13;7.55;;;3.80;;
70547;SDS011;58099;43.406;3.698;2022-08-25T17:08:39;7.87;;;3.27;;
70547;SDS011;58099;43.406;3.698;2022-08-25T17:11:11;5.93;;;3.65;;
70547;SDS011;58099;43.406;3.698;2022-08-25T17:13:38;6.70;;;3.60;;